Thunder radar more information blitzortung!


Löydät sääaseman tiedot myös:

European Weather Network

Finland Weather Exchange

Weather Underground

AWEKAS



Weather Underground säähistoriasivu

Päivittäin yhteenveto Lokakuu 12, 2017 Yksiköt:  Englantilaiset    Metriset   Molemmat
« Edellinen Päivä
Seuraava Päivä »
Päivittäin Viikoittain Kuukausittain Vuosittain Mukautettu
  Korkea: Matala: Keskiarvo:
Lämpötila: TemperatureC °F 2.1 °F 4.2 °F
Kastepiste: DewpointC °F 1.5 °F 3.4 °F
Kosteus: Humidity % 84 % 94 %
Tuulen nopeus: WindSpeedKMH mph 0.0 mph 0 mph
Tuulenpuuska: WindSpeedGustKMH mph - -
Tuuli:- - North
Ilmanpaine: PressurehPa in 998.2 in -
Sade: 0.0 in    
Historical Graphs
 
 
Taulukkotiedot Lokakuu 12, 2017
Aika Lämpötila Kastepiste Ilmanpaine Tuuli Tuulen nopeus Tuulenpuuska Kosteus Sademäärä (tunneittain)
TemperatureC °F DewpointC °F PressurehPa in Calm     Humidity % HourlyPrecipMM in
00:00 4.1 °F 3.7 °F 1003.3 in Calm     97 % 0.0 in
00:15 4.1 °F 3.8 °F 1003.3 in Calm     98 % 0.0 in
00:30 4.1 °F 3.6 °F 1003.3 in Calm     97 % 0.0 in
00:45 4.0 °F 3.6 °F 1002.9 in Calm     97 % 0.0 in
01:00 3.9 °F 3.5 °F 1002.9 in Calm     97 % 0.0 in
01:15 3.9 °F 3.5 °F 1002.9 in Calm     97 % 0.0 in
01:30 3.8 °F 3.4 °F 1002.9 in Calm     97 % 0.0 in
01:45 3.8 °F 3.5 °F 1002.9 in Calm     98 % 0.0 in
02:00 3.8 °F 3.5 °F 1002.9 in Calm     98 % 0.0 in
02:15 3.7 °F 3.4 °F 1002.9 in Calm     98 % 0.0 in
02:30 3.8 °F 3.5 °F 1002.9 in Calm     98 % 0.0 in
03:00 3.7 °F 3.4 °F 1002.6 in Calm     98 % 0.0 in
03:15 3.7 °F 3.4 °F 1002.6 in Calm     98 % 0.0 in
03:30 3.7 °F 3.4 °F 1002.6 in Calm     98 % 0.0 in
03:45 3.7 °F 3.4 °F 1002.6 in Calm     98 % 0.0 in
04:00 3.7 °F 3.4 °F 1002.6 in Calm     98 % 0.0 in
04:15 3.7 °F 3.4 °F 1002.6 in Calm     98 % 0.0 in
04:30 3.7 °F 3.4 °F 1002.6 in Calm     98 % 0.0 in
04:45 3.7 °F 3.4 °F 1002.6 in Calm     98 % 0.0 in
05:15 3.6 °F 3.3 °F 1002.3 in Calm     98 % 0.0 in
05:30 3.6 °F 3.3 °F 1002.3 in Calm     98 % 0.0 in
05:45 3.6 °F 3.3 °F 1002.3 in Calm     98 % 0.0 in
06:00 3.6 °F 3.3 °F 1001.9 in Calm     98 % 0.0 in
06:15 3.4 °F 3.2 °F 1001.6 in Calm     98 % 0.0 in
06:30 3.3 °F 3.0 °F 1001.9 in Calm     98 % 0.0 in
06:45 3.3 °F 3.0 °F 1001.9 in Calm     98 % 0.0 in
07:00 3.3 °F 3.0 °F 1001.9 in Calm     98 % 0.0 in
07:30 3.3 °F 3.0 °F 1001.9 in Calm     98 % 0.0 in
07:45 3.3 °F 3.0 °F 1001.9 in Calm     98 % 0.0 in
08:00 3.3 °F 3.0 °F 1001.6 in Calm     98 % 0.0 in
08:15 3.2 °F 2.9 °F 1001.6 in Calm     98 % 0.0 in
08:30 3.2 °F 2.9 °F 1001.6 in Calm     98 % 0.0 in
08:45 3.3 °F 3.0 °F 1001.6 in Calm     98 % 0.0 in
09:00 3.3 °F 3.0 °F 1001.6 in Calm     98 % 0.0 in
09:15 3.4 °F 3.2 °F 1001.6 in Calm     98 % 0.0 in
09:30 3.6 °F 3.3 °F 1001.6 in Calm     98 % 0.0 in
09:45 3.8 °F 3.5 °F 1001.6 in Calm     98 % 0.0 in
10:00 4.1 °F 3.8 °F 1001.6 in Calm     98 % 0.0 in
10:15 4.3 °F 4.0 °F 1001.2 in Calm     98 % 0.0 in
10:30 4.4 °F 4.1 °F 1001.2 in Calm     98 % 0.0 in
10:45 4.5 °F 4.2 °F 1001.2 in Calm     98 % 0.0 in
11:00 4.6 °F 4.3 °F 1000.9 in Calm     98 % 0.0 in
11:15 4.7 °F 4.4 °F 1000.9 in Calm     98 % 0.0 in
11:30 4.8 °F 4.5 °F 1000.9 in Calm     98 % 0.0 in
11:45 5.0 °F 4.7 °F 1000.6 in Calm     98 % 0.0 in
12:00 5.3 °F 4.8 °F 1000.6 in Calm     97 % 0.0 in
12:15 5.6 °F 5.0 °F 1000.6 in Calm     96 % 0.0 in
12:30 5.8 °F 4.7 °F 1000.2 in Calm     93 % 0.0 in
12:45 6.1 °F 4.9 °F 1000.2 in Calm     92 % 0.0 in
13:15 6.3 °F 4.8 °F 999.9 in Calm     90 % 0.0 in
13:30 6.3 °F 4.7 °F 999.9 in Calm     89 % 0.0 in
13:45 6.3 °F 4.5 °F 999.9 in Calm     88 % 0.0 in
14:00 6.3 °F 4.3 °F 999.9 in Calm     87 % 0.0 in
14:15 6.3 °F 4.5 °F 999.5 in Calm     88 % 0.0 in
14:30 6.3 °F 4.3 °F 999.5 in Calm     87 % 0.0 in
14:45 6.4 °F 4.4 °F 999.2 in Calm     87 % 0.0 in
15:00 6.4 °F 4.6 °F 999.2 in Calm     88 % 0.0 in
15:15 6.4 °F 4.4 °F 999.2 in Calm     87 % 0.0 in
15:30 6.3 °F 3.8 °F 998.9 in Calm     84 % 0.0 in
15:45 6.2 °F 4.1 °F 998.9 in Calm     86 % 0.0 in
16:00 5.9 °F 3.8 °F 998.9 in Calm     86 % 0.0 in
16:15 5.8 °F 3.8 °F 998.9 in Calm     87 % 0.0 in
16:30 5.7 °F 4.0 °F 998.5 in Calm     89 % 0.0 in
16:45 5.7 °F 4.0 °F 998.5 in Calm     89 % 0.0 in
17:00 5.6 °F 3.7 °F 998.5 in Calm     88 % 0.0 in
17:15 5.5 °F 4.0 °F 998.5 in Calm     90 % 0.0 in
17:30 5.4 °F 3.9 °F 998.2 in Calm     90 % 0.0 in
17:45 5.3 °F 3.8 °F 998.2 in Calm     90 % 0.0 in
18:00 5.3 °F 3.9 °F 998.2 in Calm     91 % 0.0 in
18:15 5.2 °F 3.8 °F 998.2 in Calm     91 % 0.0 in
18:30 5.1 °F 3.9 °F 998.2 in Calm     92 % 0.0 in
18:45 5.1 °F 3.9 °F 998.2 in Calm     92 % 0.0 in
19:00 4.9 °F 3.8 °F 998.2 in Calm     92 % 0.0 in
19:15 4.8 °F 3.6 °F 998.2 in Calm     92 % 0.0 in
19:30 4.7 °F 3.5 °F 998.2 in Calm     92 % 0.0 in
19:45 4.5 °F 3.3 °F 998.2 in Calm     92 % 0.0 in
20:00 4.3 °F 3.2 °F 998.2 in Calm     93 % 0.0 in
20:15 4.1 °F 3.0 °F 998.2 in Calm     93 % 0.0 in
20:30 3.8 °F 2.7 °F 998.5 in Calm     93 % 0.0 in
20:45 3.6 °F 2.5 °F 998.5 in Calm     93 % 0.0 in
21:00 3.3 °F 2.5 °F 998.5 in Calm     94 % 0.0 in
21:15 3.1 °F 2.1 °F 998.5 in Calm     93 % 0.0 in
21:30 2.9 °F 2.0 °F 998.5 in Calm     94 % 0.0 in
21:45 2.7 °F 1.9 °F 998.5 in Calm     94 % 0.0 in
22:00 2.6 °F 1.9 °F 998.9 in Calm     95 % 0.0 in
22:15 2.5 °F 1.8 °F 998.9 in Calm     95 % 0.0 in
22:30 2.4 °F 1.7 °F 998.9 in Calm     95 % 0.0 in
22:45 2.5 °F 1.9 °F 999.2 in Calm     96 % 0.0 in
23:00 2.4 °F 1.9 °F 999.2 in Calm     96 % 0.0 in
23:15 2.4 °F 1.9 °F 999.2 in Calm     96 % 0.0 in
23:30 2.2 °F 1.7 °F 999.2 in Calm     96 % 0.0 in
23:45 2.1 °F 1.5 °F 999.5 in Calm     96 % 0.0 in
Esan sääasema
Terveisin Weather Underground - 2.75 mb

Alkuperäinen skripti  Jim McMurry - jmcmurry@mwt.net Sovitettu myös templatelle  Wim van der Kuil - Leuven-Template.eu

Laitteet joita käytämme:

Sääasema
Davis VP2

Sääasemaohjelma
Cumulus

Sääaseman tietokone
Asus EeePC

Palveluntarjoaja
Suncomet

Davis VP2

Cumulus

Asus EeePC

Suncomet